Chico, CA (95926)

9:11 PM PDT on July 01, 2015 (GMT -0700)
WeatherShop Rooftop | | Change Station
CLOSE
Current Station
Personal Weather Station
Location: Chico, CA
Elevation: 200 ft
Nearby Weather Stations

Elev 200 ft 39.77 °N, 121.84 °W | Updated 3 minutes ago

Clear
Clear
90.7 °F
Feels Like 88 °F
N
0.0
Wind Variable Wind from ESE
Gusts 2.0 mph

Today
High -- | Low -- °F
--% Chance of Precip.
Yesterday
High -- | Low -- °F
Precip. -- in
5:42 AM 8:39 PM
Full, 100% visible
Pressure 29.81 in
Visibility 10.0 miles
Clouds Clear
Heat Index 88 °F
Dew Point 52 °F
Humidity 27%
Rainfall 0.00 in
Snow Depth Not available.
UV 0.0 out of 12
Pollen 5.70 out of 12
Air Quality Not available.
Flu Activity Not available.
METAR KCIC 020355Z AUTO 14005KT 10SM CLR 34/12 A2981 RMK AO1

More Conditions Fewer Conditions

Pressure 29.81 in
Visibility 10.0 miles
Clouds Clear
Heat Index 88 °F
Dew Point 52 °F
Humidity 27%
Rainfall 0.00 in
Snow Depth Not available.
UV 0.0 out of 12
Pollen 5.70 out of 12
Air Quality Not available.
Flu Activity Not available.
METAR KCIC 020355Z AUTO 14005KT 10SM CLR 34/12 A2981 RMK AO1

More Conditions Fewer Conditions

10-Day Weather Forecast

×

Almanac

Astronomy

Jul. 01, 2015 Rise Set
Actual Time
Civil Twilight
Nautical Twilight
Astronomical Twilight
Moon
Length of Visible Light
Length of Day
Tomorrow will be .
, % of the Moon is Illuminated

Today's Extremes

State Highs State Lows

Community

WunderPhotos

Upload Photos

1,834,405 photos uploaded!

WunderBlogs® & News

Nearby

Air Quality

  Air Quality AQ Index Pollutant
Not available.

Snow Depth

Station Depth Elevation

Earthquake Activity

City Distance Mag. Time & Date
Minimum magnitude displayed is 2.5.

Coastal Water Temperatures

Place Temperature

Stations

Nearby Weather Stations

Station Location Temp. Windchill Dew Point Humidity Wind Precip. Elev Updated Type
                   
Excessive Heat Warning
Statement as of 7:00 PM PDT on July 01, 2015

... Excessive heat warning remains in effect until 8 am PDT
Friday...

* temperature... high temperatures 106-114... low temperatures 75-
80

* impacts... heat related illnesses possible to likely if action
not taken

Precautionary/preparedness actions...

Take extra precautions... if you work or spend time outside. Know
the signs and symptoms of heat exhaustion and heat stroke. Wear
light weight and loose fitting clothing when possible and drink
plenty of water.

An excessive heat warning means that a prolonged period of
dangerously hot temperatures will occur. The combination of hot
temperatures and warm overnight lows will combine to create a
dangerous situation in which heat illnesses are likely. Drink
plenty of fluids... stay in an air-conditioned room... stay out of
the sun... and check up on relatives and neighbors.

Young children and pets should never be left unattended in
vehicles under any circumstances.


Interact with US via social media www.Facebook.Com/NWS.Sacramento
www.Twitter.Com/nwssacramento